Time;durP1;ratioP1;P1;durP2;ratioP2;P2;SDS_P1;SDS_P2;PMS_P1;PMS_P2;Temp;Humidity;BMP_temperature;BMP_pressure;BME280_temperature;BME280_humidity;BME280_pressure;Samples;Min_cycle;Max_cycle;Signal;HPM_P1;HPM_P2
2024/01/08 00:01:23;;;;;;;6.30;5.70;;;;;;;-0.07;79.01;102122.34;4993215;28;20210;-81
2024/01/08 00:03:50;;;;;;;6.63;6.03;;;;;;;-0.06;79.17;102120.66;4992326;28;20227;-81
2024/01/08 00:06:17;;;;;;;5.50;5.00;;;;;;;0.01;79.00;102107.34;4976646;28;20212;-81
2024/01/08 00:08:45;;;;;;;6.87;6.17;;;;;;;0.03;78.28;102120.25;4984621;28;20831;-81
2024/01/08 00:11:11;;;;;;;6.87;6.17;;;;;;;0.04;78.90;102122.00;4993116;28;20242;-80
2024/01/08 00:13:38;;;;;;;6.10;5.50;;;;;;;0.04;79.00;102122.91;4993842;28;20801;-81
2024/01/08 00:16:05;;;;;;;6.00;5.50;;;;;;;0.05;78.92;102126.34;4993996;28;20204;-81
2024/01/08 00:18:31;;;;;;;5.97;5.40;;;;;;;0.06;78.88;102122.97;5005218;28;20583;-80
2024/01/08 00:20:59;;;;;;;5.93;5.33;;;;;;;0.08;79.10;102116.22;5004703;28;20207;-80
2024/01/08 00:23:25;;;;;;;5.50;5.00;;;;;;;0.10;78.44;102124.88;5006287;28;20795;-80
2024/01/08 00:25:53;;;;;;;5.83;5.33;;;;;;;0.08;78.70;102126.50;5005720;28;20858;-80
2024/01/08 00:28:19;;;;;;;6.40;5.80;;;;;;;0.09;78.12;102129.16;5006057;28;20254;-80
2024/01/08 00:30:46;;;;;;;6.33;5.10;;;;;;;0.10;78.86;102133.50;5002744;28;20211;-79
2024/01/08 00:33:12;;;;;;;5.77;5.17;;;;;;;0.09;78.23;102138.53;4993414;28;20231;-80
2024/01/08 00:35:38;;;;;;;5.67;5.17;;;;;;;0.04;78.21;102138.31;4983747;28;20212;-80
2024/01/08 00:38:05;;;;;;;5.27;4.87;;;;;;;0.04;78.60;102138.31;4981601;28;20261;-80
2024/01/08 00:40:31;;;;;;;6.23;4.73;;;;;;;0.07;78.79;102137.59;4994665;28;20207;-80
2024/01/08 00:42:59;;;;;;;6.10;5.50;;;;;;;-0.03;78.78;102141.34;4994292;28;20650;-80
2024/01/08 00:45:26;;;;;;;6.17;5.63;;;;;;;-0.10;78.56;102142.72;4994678;28;20212;-80
2024/01/08 00:47:52;;;;;;;7.63;5.60;;;;;;;-0.13;78.65;102134.00;4993407;28;20625;-80
2024/01/08 00:50:19;;;;;;;5.73;5.23;;;;;;;-0.17;79.08;102134.63;4995328;28;20218;-79
2024/01/08 00:52:46;;;;;;;6.10;5.53;;;;;;;-0.23;79.10;102136.06;4994245;28;20254;-79
2024/01/08 00:55:13;;;;;;;6.83;5.87;;;;;;;-0.20;80.16;102112.25;4999570;28;20203;-80
2024/01/08 00:57:40;;;;;;;6.90;5.43;;;;;;;-0.10;79.86;102105.91;4996412;28;20274;-80
2024/01/08 01:00:09;;;;;;;6.27;5.67;;;;;;;-0.06;79.49;102101.03;4996807;28;20203;-80
2024/01/08 01:02:36;;;;;;;6.03;5.43;;;;;;;-0.01;79.94;102096.97;5004211;28;20738;-79
2024/01/08 01:05:03;;;;;;;6.20;5.60;;;;;;;0.04;79.84;102093.78;4988992;28;20295;-79
2024/01/08 01:07:29;;;;;;;5.27;4.77;;;;;;;0.03;79.86;102102.28;4977676;28;20299;-79
2024/01/08 01:09:56;;;;;;;7.07;5.50;;;;;;;0.03;80.01;102104.84;4995713;28;20231;-80
2024/01/08 01:12:22;;;;;;;7.80;5.53;;;;;;;0.09;79.60;102110.28;4994971;28;20235;-79
2024/01/08 01:14:49;;;;;;;6.23;5.30;;;;;;;0.08;79.10;102112.00;4983519;28;20567;-79
2024/01/08 01:17:16;;;;;;;6.27;5.70;;;;;;;0.06;79.09;102116.16;4988319;28;20250;-79
2024/01/08 01:19:43;;;;;;;6.47;5.77;;;;;;;0.03;79.01;102127.97;4995909;28;20204;-80
2024/01/08 01:22:09;;;;;;;6.07;5.57;;;;;;;-0.06;78.68;102129.25;4997402;28;20285;-79
2024/01/08 01:24:36;;;;;;;6.00;5.50;;;;;;;0.01;79.45;102142.41;4996003;28;20720;-79
2024/01/08 01:27:02;;;;;;;5.60;5.10;;;;;;;0.02;79.54;102132.22;4996632;28;20238;-80
2024/01/08 01:29:28;;;;;;;6.20;5.53;;;;;;;0.05;79.15;102140.06;4995903;28;20577;-79
2024/01/08 01:31:55;;;;;;;6.70;5.83;;;;;;;0.03;79.28;102144.22;4995932;28;20281;-79
2024/01/08 01:34:22;;;;;;;6.17;5.67;;;;;;;-0.02;78.61;102154.28;5001299;28;20215;-78
2024/01/08 01:36:49;;;;;;;5.73;5.23;;;;;;;0.04;79.49;102150.25;4977269;28;20655;-80
2024/01/08 01:39:15;;;;;;;5.70;5.20;;;;;;;-0.04;78.88;102142.16;4992622;28;20210;-79
2024/01/08 01:41:42;;;;;;;5.90;5.33;;;;;;;0.01;79.49;102138.16;4996388;28;20204;-80
2024/01/08 01:44:08;;;;;;;6.17;5.57;;;;;;;0.06;79.41;102134.13;4997198;28;20235;-80
2024/01/08 01:46:39;;;;;;;6.23;5.73;;;;;;;0.03;79.31;102143.38;4997013;28;20208;-80
2024/01/08 01:49:06;;;;;;;7.53;6.17;;;;;;;0.01;79.36;102143.28;4996333;28;20223;-80
2024/01/08 01:51:34;;;;;;;6.93;5.40;;;;;;;-0.02;79.02;102146.56;4996770;28;20208;-79
2024/01/08 01:54:01;;;;;;;6.77;5.60;;;;;;;-0.04;79.29;102143.06;4996764;28;20207;-79
2024/01/08 01:56:28;;;;;;;6.47;5.00;;;;;;;0.00;78.86;102146.66;4996275;28;20218;-80
2024/01/08 01:58:55;;;;;;;6.43;5.40;;;;;;;0.02;79.53;102146.72;4996805;28;20242;-79
2024/01/08 02:01:22;;;;;;;6.40;5.80;;;;;;;0.03;78.93;102149.38;4996107;28;20575;-79
2024/01/08 02:03:48;;;;;;;5.47;4.97;;;;;;;-0.01;78.78;102143.19;4987992;28;20223;-79
2024/01/08 02:06:19;;;;;;;6.03;5.47;;;;;;;0.01;79.25;102147.53;4989560;28;20278;-79
2024/01/08 02:08:47;;;;;;;6.50;5.47;;;;;;;-0.02;78.82;102146.56;4987427;28;20267;-80
2024/01/08 02:11:15;;;;;;;5.77;5.27;;;;;;;-0.11;78.81;102153.78;4996907;28;20231;-80
2024/01/08 02:13:42;;;;;;;5.97;5.47;;;;;;;-0.10;79.03;102142.72;4996148;28;20298;-79
2024/01/08 02:16:08;;;;;;;5.30;4.80;;;;;;;-0.11;79.06;102140.97;4996873;28;20282;-79
2024/01/08 02:18:34;;;;;;;5.60;5.20;;;;;;;-0.08;79.46;102138.56;4995319;28;20215;-79
2024/01/08 02:21:01;;;;;;;5.87;5.23;;;;;;;-0.02;79.11;102133.75;4996096;28;20266;-80
2024/01/08 02:23:28;;;;;;;5.57;5.07;;;;;;;0.01;79.34;102138.16;4995852;28;20610;-80
2024/01/08 02:25:55;;;;;;;6.17;5.17;;;;;;;-0.07;78.60;102144.56;5000277;28;20211;-79
2024/01/08 02:28:22;;;;;;;5.47;4.90;;;;;;;-0.05;78.97;102148.97;4999502;28;20631;-80
2024/01/08 02:30:48;;;;;;;5.63;5.07;;;;;;;-0.07;79.30;102153.16;4995720;28;20262;-80
2024/01/08 02:33:15;;;;;;;5.53;5.03;;;;;;;-0.04;78.74;102154.97;5004310;28;20282;-80
2024/01/08 02:35:41;;;;;;;6.17;5.07;;;;;;;-0.05;78.49;102154.09;4985978;28;20208;-80
2024/01/08 02:38:07;;;;;;;6.10;5.47;;;;;;;-0.03;79.02;102154.19;4982509;28;20220;-80
2024/01/08 02:40:35;;;;;;;5.53;5.03;;;;;;;-0.05;78.73;102166.06;4996259;28;20593;-79
2024/01/08 02:43:01;;;;;;;5.87;4.63;;;;;;;-0.05;78.34;102179.78;4995825;28;20286;-79
2024/01/08 02:45:28;;;;;;;5.70;5.10;;;;;;;-0.06;77.77;102178.03;4996571;28;20265;-80
2024/01/08 02:47:54;;;;;;;5.50;4.93;;;;;;;-0.05;76.94;102202.88;4996155;28;20207;-79
2024/01/08 02:50:20;;;;;;;4.93;4.27;;;;;;;-0.01;76.52;102217.63;4996002;28;20223;-79
2024/01/08 02:52:47;;;;;;;5.00;4.50;;;;;;;0.06;76.43;102238.50;4996184;28;20239;-80
2024/01/08 02:55:13;;;;;;;4.57;4.17;;;;;;;0.10;75.62;102254.16;4996469;28;20203;-80
2024/01/08 02:57:41;;;;;;;5.63;5.13;;;;;;;0.12;75.60;102257.69;4995660;28;20208;-80
2024/01/08 03:00:09;;;;;;;6.17;4.70;;;;;;;0.17;76.11;102251.09;4997189;28;20199;-80
2024/01/08 03:02:35;;;;;;;5.47;4.97;;;;;;;0.21;76.51;102257.28;4995497;28;20227;-80
2024/01/08 03:05:02;;;;;;;5.57;5.17;;;;;;;0.28;76.77;102258.47;4991525;28;20212;-80
2024/01/08 03:07:29;;;;;;;6.23;5.50;;;;;;;0.23;76.94;102253.09;4976419;28;20243;-80
2024/01/08 03:09:57;;;;;;;5.07;4.67;;;;;;;0.28;76.73;102254.25;4996313;28;20231;-80
2024/01/08 03:12:23;;;;;;;6.17;5.10;;;;;;;0.32;76.09;102263.88;4995619;28;20239;-80
2024/01/08 03:14:51;;;;;;;5.47;4.97;;;;;;;0.28;75.74;102273.88;4996195;28;20636;-79
2024/01/08 03:17:17;;;;;;;8.33;5.03;;;;;;;0.25;76.17;102272.03;4996188;28;20211;-79
2024/01/08 03:19:44;;;;;;;5.33;4.83;;;;;;;0.28;76.23;102282.50;4995675;28;20195;-80
2024/01/08 03:22:10;;;;;;;7.23;6.33;;;;;;;0.27;76.78;102275.56;4995867;28;20714;-79
2024/01/08 03:24:37;;;;;;;5.47;4.63;;;;;;;0.27;76.19;102280.72;4996202;28;20207;-80
2024/01/08 03:27:03;;;;;;;5.00;4.60;;;;;;;0.21;76.17;102288.09;4995696;28;20199;-79
2024/01/08 03:29:30;;;;;;;4.73;4.30;;;;;;;0.24;75.54;102293.41;4996111;28;20277;-79
2024/01/08 03:31:58;;;;;;;5.50;5.00;;;;;;;0.23;76.22;102288.19;5003446;28;20230;-80
2024/01/08 03:34:24;;;;;;;6.03;4.53;;;;;;;0.25;75.43;102305.44;4996385;28;20208;-80
2024/01/08 03:36:51;;;;;;;4.83;4.33;;;;;;;0.27;75.21;102300.38;4987703;28;20207;-80
2024/01/08 03:39:18;;;;;;;4.93;4.43;;;;;;;0.27;75.58;102311.53;4996021;28;20286;-79
2024/01/08 03:41:45;;;;;;;5.33;4.83;;;;;;;0.28;75.17;102308.19;4996199;28;20254;-80
2024/01/08 03:44:13;;;;;;;5.10;4.60;;;;;;;0.24;75.38;102319.09;4996154;28;20254;-80
2024/01/08 03:46:40;;;;;;;5.37;4.87;;;;;;;0.26;75.11;102330.31;4996070;28;20206;-79
2024/01/08 03:49:07;;;;;;;4.63;4.23;;;;;;;0.29;75.08;102334.75;4996038;28;20223;-80
2024/01/08 03:51:35;;;;;;;4.43;4.03;;;;;;;0.28;74.53;102335.53;4998447;28;20215;-79
2024/01/08 03:54:01;;;;;;;5.07;4.50;;;;;;;0.22;74.82;102333.53;5000189;28;20210;-80
2024/01/08 03:56:28;;;;;;;5.03;4.63;;;;;;;0.12;74.45;102350.13;5000059;28;20208;-79
2024/01/08 03:58:54;;;;;;;4.83;4.43;;;;;;;0.13;74.37;102356.13;5000041;28;20258;-80
2024/01/08 04:01:20;;;;;;;4.83;4.43;;;;;;;0.11;75.07;102358.63;5000308;28;20196;-80
2024/01/08 04:03:47;;;;;;;4.90;4.50;;;;;;;0.13;74.27;102348.44;4999870;28;20667;-80
2024/01/08 04:06:16;;;;;;;5.43;4.67;;;;;;;0.15;74.64;102352.84;4986976;28;20204;-80
2024/01/08 04:08:42;;;;;;;4.67;4.27;;;;;;;0.14;73.87;102363.94;4998073;28;20210;-80
2024/01/08 04:11:09;;;;;;;4.53;4.13;;;;;;;0.14;73.99;102369.06;5000619;28;20267;-79
2024/01/08 04:13:38;;;;;;;4.73;3.93;;;;;;;0.14;74.70;102376.78;4999567;28;20730;-80
2024/01/08 04:16:05;;;;;;;4.30;3.90;;;;;;;0.08;74.75;102383.22;5000270;28;20579;-80
2024/01/08 04:18:31;;;;;;;4.37;4.07;;;;;;;0.02;74.45;102377.75;5004579;28;20208;-78
2024/01/08 04:20:57;;;;;;;4.47;4.07;;;;;;;0.03;74.39;102380.41;5005694;28;20195;-78
2024/01/08 04:23:25;;;;;;;3.97;3.67;;;;;;;0.02;74.04;102390.59;5007497;28;20219;-78
2024/01/08 04:25:51;;;;;;;3.83;3.33;;;;;;;-0.09;73.11;102396.03;5007748;28;20208;-78
2024/01/08 04:28:19;;;;;;;3.83;3.43;;;;;;;-0.08;72.04;102426.03;5007019;28;20227;-78
2024/01/08 04:30:46;;;;;;;3.90;3.30;;;;;;;-0.17;71.43;102446.03;5009177;28;20235;-79
2024/01/08 04:33:13;;;;;;;3.30;2.93;;;;;;;-0.07;70.24;102452.59;5007903;28;20231;-79
2024/01/08 04:35:39;;;;;;;4.33;3.93;;;;;;;-0.02;69.64;102480.28;5006869;28;20257;-78
2024/01/08 04:38:05;;;;;;;3.83;3.47;;;;;;;-0.06;67.12;102522.00;4990959;28;20630;-80
2024/01/08 04:40:33;;;;;;;3.70;3.30;;;;;;;-0.05;65.79;102563.94;4995743;28;20207;-80
2024/01/08 04:42:59;;;;;;;3.23;3.00;;;;;;;-0.03;65.43;102609.44;4998174;28;20227;-79
2024/01/08 04:45:25;;;;;;;4.03;3.60;;;;;;;-0.03;64.43;102642.81;4998495;28;20203;-79
2024/01/08 04:47:52;;;;;;;3.27;2.97;;;;;;;-0.08;64.05;102676.69;4997409;28;20787;-79
2024/01/08 04:50:18;;;;;;;3.23;3.03;;;;;;;-0.11;64.82;102702.19;5003699;28;20647;-79
2024/01/08 04:52:44;;;;;;;3.30;3.00;;;;;;;-0.09;64.16;102718.56;4999045;28;21137;-79
2024/01/08 04:55:12;;;;;;;4.13;3.53;;;;;;;-0.12;64.27;102741.47;4998062;28;20254;-79
2024/01/08 04:57:40;;;;;;;3.87;3.30;;;;;;;-0.16;64.30;102750.66;4997760;28;20203;-80
2024/01/08 05:00:09;;;;;;;3.97;3.57;;;;;;;-0.23;63.88;102764.78;4997706;28;20200;-80
2024/01/08 05:02:35;;;;;;;3.63;3.33;;;;;;;-0.14;64.04;102774.78;4995968;28;20223;-79
2024/01/08 05:05:04;;;;;;;6.10;3.73;;;;;;;-0.34;62.92;102788.88;4990147;28;20207;-80
2024/01/08 05:07:31;;;;;;;3.63;3.33;;;;;;;-0.29;63.68;102800.34;4981963;28;20236;-80
2024/01/08 05:09:57;;;;;;;4.73;4.03;;;;;;;-0.36;62.70;102826.38;4988983;28;20647;-79
2024/01/08 05:12:23;;;;;;;3.57;3.27;;;;;;;-0.37;62.55;102834.91;4997870;28;20960;-80
2024/01/08 05:14:51;;;;;;;4.10;3.20;;;;;;;-0.38;61.54;102847.63;4997684;28;20247;-79
2024/01/08 05:17:17;;;;;;;3.83;3.47;;;;;;;-0.44;61.66;102869.53;4999094;28;20667;-79
2024/01/08 05:19:44;;;;;;;4.33;3.63;;;;;;;-0.45;61.55;102884.81;4998136;28;20760;-79
2024/01/08 05:22:10;;;;;;;4.33;3.93;;;;;;;-0.44;61.96;102891.72;4997997;28;20254;-79
2024/01/08 05:24:36;;;;;;;3.67;3.37;;;;;;;-0.44;62.59;102886.59;5005273;28;20254;-80
2024/01/08 05:27:03;;;;;;;5.03;3.93;;;;;;;-0.41;62.99;102887.69;4997408;28;20669;-80
2024/01/08 05:29:29;;;;;;;3.80;3.40;;;;;;;-0.40;63.15;102886.00;4997267;28;20223;-79
2024/01/08 05:31:57;;;;;;;4.27;3.87;;;;;;;-0.38;63.25;102883.53;4996911;28;20228;-80
2024/01/08 05:34:23;;;;;;;5.27;4.40;;;;;;;-0.39;63.42;102874.97;4997925;28;20208;-80
2024/01/08 05:36:50;;;;;;;4.10;3.80;;;;;;;-0.44;61.94;102884.03;4979911;28;20220;-80
2024/01/08 05:39:17;;;;;;;3.90;3.60;;;;;;;-0.54;60.92;102909.88;4991902;28;20274;-80
2024/01/08 05:41:43;;;;;;;3.97;3.57;;;;;;;-0.45;60.12;102928.44;4997416;28;20717;-79
2024/01/08 05:44:09;;;;;;;4.00;3.60;;;;;;;-0.54;59.37;102956.03;4996613;28;20210;-79
2024/01/08 05:46:40;;;;;;;3.50;3.20;;;;;;;-0.59;57.65;102991.66;4996529;28;20211;-79
2024/01/08 05:49:08;;;;;;;3.10;2.90;;;;;;;-0.60;57.22;103025.78;4996956;28;20681;-80
2024/01/08 05:51:34;;;;;;;3.23;2.93;;;;;;;-0.61;57.82;103060.78;4997539;28;20595;-79
2024/01/08 05:54:01;;;;;;;3.33;2.93;;;;;;;-0.71;57.14;103072.88;4997266;28;20211;-80
2024/01/08 05:56:27;;;;;;;4.63;3.00;;;;;;;-0.67;57.19;103103.97;4996967;28;20678;-79
2024/01/08 05:58:53;;;;;;;3.57;3.27;;;;;;;-0.72;57.65;103113.00;4997247;28;20733;-80
2024/01/08 06:01:21;;;;;;;3.70;3.40;;;;;;;-0.75;57.01;103123.06;4997776;28;20336;-80
2024/01/08 06:03:47;;;;;;;4.97;3.03;;;;;;;-0.88;56.21;103154.63;4997013;28;20274;-79
2024/01/08 06:06:15;;;;;;;3.40;3.10;;;;;;;-0.90;55.71;103166.44;4985219;28;20215;-80
2024/01/08 06:08:41;;;;;;;3.57;3.27;;;;;;;-0.89;55.35;103191.31;4993601;28;20207;-80
2024/01/08 06:11:08;;;;;;;4.60;3.47;;;;;;;-1.06;54.49;103223.41;4997426;28;20223;-79
2024/01/08 06:13:36;;;;;;;3.43;3.13;;;;;;;-1.08;54.52;103245.47;4996764;28;20219;-80
2024/01/08 06:16:03;;;;;;;3.70;3.07;;;;;;;-1.16;53.86;103267.06;4997528;28;20203;-79
2024/01/08 06:18:31;;;;;;;4.07;3.77;;;;;;;-1.23;53.81;103290.44;4996679;28;20208;-79
2024/01/08 06:20:57;;;;;;;3.60;3.27;;;;;;;-1.22;53.25;103313.63;4997430;28;20295;-80
2024/01/08 06:23:25;;;;;;;3.63;3.10;;;;;;;-1.16;53.01;103328.59;4997108;28;20706;-79
2024/01/08 06:25:51;;;;;;;3.57;3.27;;;;;;;-1.19;53.42;103356.53;4996480;28;20211;-79
2024/01/08 06:28:18;;;;;;;4.00;3.47;;;;;;;-1.27;53.48;103367.88;4997965;28;20207;-80
2024/01/08 06:30:44;;;;;;;2.70;2.50;;;;;;;-1.34;53.58;103370.75;4997151;28;20220;-79
2024/01/08 06:33:11;;;;;;;2.87;2.67;;;;;;;-1.32;52.94;103384.56;4996617;28;20270;-79
2024/01/08 06:35:37;;;;;;;3.13;2.83;;;;;;;-1.29;53.31;103389.91;4989688;28;20218;-80
2024/01/08 06:38:04;;;;;;;3.30;3.00;;;;;;;-1.36;52.79;103403.94;4987494;28;20231;-80
2024/01/08 06:40:31;;;;;;;3.60;3.20;;;;;;;-1.41;52.34;103421.53;4996897;28;20199;-79
2024/01/08 06:42:58;;;;;;;3.03;2.73;;;;;;;-1.45;51.82;103445.13;4996979;28;20651;-80
2024/01/08 06:45:24;;;;;;;2.90;2.70;;;;;;;-1.56;52.63;103451.06;4996692;28;20203;-80
2024/01/08 06:47:51;;;;;;;3.47;3.17;;;;;;;-1.49;52.34;103453.31;4996481;28;20207;-79
2024/01/08 06:50:17;;;;;;;3.00;2.70;;;;;;;-1.62;52.19;103466.81;5007662;28;20227;-80
2024/01/08 06:52:43;;;;;;;3.00;2.70;;;;;;;-1.69;52.30;103473.88;4999782;28;20312;-80
2024/01/08 06:55:10;;;;;;;3.27;2.90;;;;;;;-1.67;52.17;103470.66;4996259;28;20211;-79
2024/01/08 06:57:37;;;;;;;3.77;2.63;;;;;;;-1.66;51.96;103474.16;5022874;23;20547;-80
2024/01/08 07:00:05;;;;;;;3.50;3.20;;;;;;;-1.69;52.32;103481.56;5021128;28;20248;-80
2024/01/08 07:02:33;;;;;;;3.50;3.20;;;;;;;-1.82;52.57;103493.41;5025897;28;20696;-83
2024/01/08 07:05:00;;;;;;;3.10;2.80;;;;;;;-1.72;52.52;103492.47;5027321;28;20210;-84
2024/01/08 07:07:26;;;;;;;3.67;3.10;;;;;;;-1.71;52.36;103495.91;5025780;28;20289;-85
2024/01/08 07:09:53;;;;;;;3.70;3.13;;;;;;;-1.77;52.38;103500.53;5038288;28;20222;-83
2024/01/08 07:12:19;;;;;;;3.47;2.90;;;;;;;-1.72;52.93;103496.72;5039450;28;20204;-81
2024/01/08 07:14:47;;;;;;;5.00;2.83;;;;;;;-1.76;53.08;103493.00;5040325;28;20256;-82
2024/01/08 07:17:13;;;;;;;4.50;3.00;;;;;;;-1.81;53.57;103484.91;5038658;28;20201;-83
2024/01/08 07:19:40;;;;;;;3.73;3.43;;;;;;;-1.78;53.24;103474.06;5036504;28;20226;-80
2024/01/08 07:22:06;;;;;;;3.50;3.20;;;;;;;-1.82;53.76;103472.91;5033330;28;20237;-80
2024/01/08 07:24:32;;;;;;;3.83;3.27;;;;;;;-1.84;53.71;103460.75;5032411;28;20210;-82
2024/01/08 07:26:59;;;;;;;4.80;4.20;;;;;;;-1.83;54.48;103450.63;5034424;28;20630;-80
2024/01/08 07:29:25;;;;;;;6.73;5.53;;;;;;;-1.84;54.61;103447.97;5034485;28;20276;-80
2024/01/08 07:31:53;;;;;;;6.00;5.23;;;;;;;-1.82;54.78;103434.50;5036198;28;20300;-81
2024/01/08 07:34:20;;;;;;;5.20;3.77;;;;;;;-1.84;55.52;103424.94;5037099;28;20252;-84
2024/01/08 07:36:46;;;;;;;5.37;4.33;;;;;;;-1.82;56.33;103401.22;5037693;28;20206;-81
2024/01/08 07:39:14;;;;;;;4.77;4.37;;;;;;;-1.82;56.48;103387.53;5029673;28;20223;-81
2024/01/08 07:41:40;;;;;;;5.13;4.43;;;;;;;-1.82;57.00;103365.38;5031473;28;20204;-84
2024/01/08 07:44:07;;;;;;;3.93;3.50;;;;;;;-1.84;57.01;103349.00;5038042;28;20260;-83
2024/01/08 07:46:33;;;;;;;7.70;3.93;;;;;;;-1.89;57.29;103334.94;5036389;28;20198;-81
2024/01/08 07:49:01;;;;;;;3.93;3.63;;;;;;;-1.96;56.55;103325.00;5036424;28;20755;-83
2024/01/08 07:51:27;;;;;;;3.60;3.30;;;;;;;-2.02;56.03;103333.09;5037433;28;20222;-82
2024/01/08 07:53:54;;;;;;;4.83;3.57;;;;;;;-2.05;55.34;103337.94;5038449;28;20256;-82
2024/01/08 07:56:23;;;;;;;3.77;3.40;;;;;;;-2.02;55.29;103355.25;5040461;28;20202;-82
2024/01/08 07:58:50;;;;;;;3.70;3.40;;;;;;;-2.02;54.83;103362.91;5035101;28;20238;-84
2024/01/08 08:01:16;;;;;;;5.13;4.00;;;;;;;-2.03;55.06;103372.25;5032331;28;20256;-83
2024/01/08 08:03:43;;;;;;;9.40;3.73;;;;;;;-2.11;55.88;103374.97;5036698;28;20561;-83
2024/01/08 08:06:11;;;;;;;4.27;3.80;;;;;;;-2.08;56.29;103365.88;5037261;28;20625;-81
2024/01/08 08:08:37;;;;;;;4.50;4.10;;;;;;;-2.08;56.60;103353.09;5038067;28;20225;-84
2024/01/08 08:11:06;;;;;;;5.20;4.17;;;;;;;-2.02;56.70;103340.78;5037435;28;20222;-82
2024/01/08 08:13:32;;;;;;;4.77;4.20;;;;;;;-2.09;56.70;103342.72;5037955;28;20206;-85
2024/01/08 08:16:00;;;;;;;5.93;4.20;;;;;;;-2.11;56.62;103334.91;5037372;28;20210;-83
2024/01/08 08:18:26;;;;;;;5.07;4.20;;;;;;;-2.13;56.37;103340.69;5035527;28;20222;-82
2024/01/08 08:20:52;;;;;;;3.93;3.53;;;;;;;-2.20;55.28;103342.75;5036486;28;20256;-83
2024/01/08 08:23:20;;;;;;;5.53;3.53;;;;;;;-2.20;54.70;103362.31;5036225;28;20229;-83
2024/01/08 08:25:46;;;;;;;4.03;3.73;;;;;;;-2.22;55.22;103374.09;5036853;28;20217;-85
2024/01/08 08:28:13;;;;;;;4.13;3.73;;;;;;;-2.23;55.34;103375.75;5036550;28;20262;-83
2024/01/08 08:30:39;;;;;;;3.70;3.17;;;;;;;-2.31;54.58;103391.28;5036617;28;20226;-82
2024/01/08 08:33:06;;;;;;;4.13;3.40;;;;;;;-2.35;54.55;103400.34;5035929;28;20210;-81
2024/01/08 08:35:34;;;;;;;3.77;3.37;;;;;;;-2.32;54.93;103421.09;5035890;28;20230;-80
2024/01/08 08:38:00;;;;;;;4.33;3.40;;;;;;;-2.38;54.74;103412.88;5035806;28;20315;-80
2024/01/08 08:40:28;;;;;;;4.33;3.50;;;;;;;-2.40;54.55;103417.91;5036876;28;20688;-83
2024/01/08 08:42:55;;;;;;;5.00;3.80;;;;;;;-2.31;53.84;103427.09;5036566;28;20202;-81
2024/01/08 08:45:21;;;;;;;5.03;3.60;;;;;;;-2.36;54.78;103441.16;5032879;28;20206;-78
2024/01/08 08:47:51;;;;;;;3.73;3.43;;;;;;;-2.41;54.55;103457.00;5031615;28;20612;-78
2024/01/08 08:50:18;;;;;;;3.93;3.20;;;;;;;-2.67;54.80;103467.63;5035750;28;20202;-78
2024/01/08 08:52:44;;;;;;;4.87;4.20;;;;;;;-2.51;54.81;103462.13;5035346;28;20210;-79
2024/01/08 08:55:12;;;;;;;4.57;3.93;;;;;;;-2.32;54.02;103463.66;5036290;28;20206;-79
2024/01/08 08:57:39;;;;;;;4.30;3.90;;;;;;;-2.28;53.99;103481.03;5035145;28;20581;-82
2024/01/08 09:00:08;;;;;;;4.33;3.93;;;;;;;-2.28;54.18;103486.16;5027431;28;20253;-80
2024/01/08 09:02:39;;;;;;;4.87;3.93;;;;;;;-2.31;53.46;103491.03;5031981;28;20753;-80
2024/01/08 09:05:07;;;;;;;3.93;3.53;;;;;;;-2.29;54.10;103499.75;5035896;28;20206;-80
2024/01/08 09:07:34;;;;;;;4.20;3.80;;;;;;;-2.34;53.96;103511.25;5037576;28;20300;-79
2024/01/08 09:10:01;;;;;;;3.80;3.50;;;;;;;-2.40;54.07;103520.22;5037130;28;20214;-83
2024/01/08 09:12:28;;;;;;;4.10;3.67;;;;;;;-2.37;53.54;103521.22;5034943;28;20277;-82
2024/01/08 09:14:56;;;;;;;4.60;3.93;;;;;;;-2.81;55.07;103529.50;5035253;28;20206;-82
2024/01/08 09:17:22;;;;;;;4.73;3.90;;;;;;;-2.80;55.22;103523.59;5035067;28;20230;-83
2024/01/08 09:19:49;;;;;;;4.30;3.73;;;;;;;-2.70;54.73;103520.16;5035139;28;20288;-82
2024/01/08 09:22:16;;;;;;;4.40;4.00;;;;;;;-2.52;54.99;103505.47;5035746;28;20203;-82
2024/01/08 09:24:42;;;;;;;4.30;3.90;;;;;;;-2.42;55.07;103505.47;5035305;28;20237;-82
2024/01/08 09:27:08;;;;;;;4.83;3.27;;;;;;;-2.54;54.11;103515.56;5036114;28;20210;-80
2024/01/08 09:29:34;;;;;;;4.63;3.53;;;;;;;-2.51;54.02;103527.75;5036443;28;20281;-81
2024/01/08 09:32:02;;;;;;;4.30;3.70;;;;;;;-2.60;53.87;103531.31;5036206;28;20233;-82
2024/01/08 09:34:29;;;;;;;4.67;3.97;;;;;;;-2.54;54.36;103537.69;5036894;28;20202;-82
2024/01/08 09:36:55;;;;;;;4.93;4.47;;;;;;;-2.51;54.20;103535.41;5036108;28;20206;-78
2024/01/08 09:39:22;;;;;;;4.47;3.80;;;;;;;-2.46;54.66;103529.94;5027991;28;20250;-82
2024/01/08 09:41:49;;;;;;;5.20;3.90;;;;;;;-2.47;54.42;103529.78;5036221;28;20198;-80
2024/01/08 09:44:15;;;;;;;4.23;3.83;;;;;;;-2.57;54.08;103542.56;5036417;28;20293;-83
2024/01/08 09:46:44;;;;;;;4.00;3.60;;;;;;;-2.55;54.21;103547.03;5031164;28;20284;-82
2024/01/08 09:49:14;;;;;;;4.33;4.00;;;;;;;-2.48;53.93;103553.56;5034853;28;20222;-83
2024/01/08 09:51:41;;;;;;;4.33;3.70;;;;;;;-2.60;53.54;103556.91;5035916;28;20300;-82
2024/01/08 09:54:08;;;;;;;4.47;4.07;;;;;;;-2.57;53.51;103556.25;5035631;28;20918;-80
2024/01/08 09:56:34;;;;;;;5.40;3.97;;;;;;;-2.60;54.03;103553.41;5035636;28;20208;-80
2024/01/08 09:59:01;;;;;;;4.83;3.70;;;;;;;-2.61;54.41;103554.19;5036510;28;20253;-83
2024/01/08 10:01:27;;;;;;;6.57;4.07;;;;;;;-2.54;54.50;103547.94;5035320;28;20683;-83
2024/01/08 10:03:54;;;;;;;4.10;3.70;;;;;;;-2.53;54.24;103545.50;5035271;28;20668;-81
2024/01/08 10:06:21;;;;;;;4.90;3.73;;;;;;;-2.44;53.32;103547.94;5027490;28;20211;-80
2024/01/08 10:08:48;;;;;;;4.03;3.63;;;;;;;-2.50;54.13;103558.53;5035236;28;20291;-82
2024/01/08 10:11:14;;;;;;;4.93;4.43;;;;;;;-2.36;53.79;103552.03;5035668;28;20264;-81
2024/01/08 10:13:41;;;;;;;4.73;3.70;;;;;;;-2.37;53.03;103554.50;5035343;28;20808;-81
2024/01/08 10:16:09;;;;;;;4.07;3.53;;;;;;;-2.41;53.42;103561.88;5026726;28;20743;-75
2024/01/08 10:18:35;;;;;;;5.70;4.10;;;;;;;-2.33;53.84;103566.78;5034446;28;20386;-83
2024/01/08 10:21:12;;;;;;;4.80;4.40;;;;;;;-2.33;54.32;103557.41;5035682;28;20202;-83
2024/01/08 10:23:40;;;;;;;4.27;3.87;;;;;;;-2.23;53.88;103553.97;5029676;28;20206;-79
2024/01/08 10:26:07;;;;;;;5.00;4.53;;;;;;;-2.16;53.71;103552.81;5036283;28;20663;-82
2024/01/08 10:28:37;;;;;;;4.27;3.87;;;;;;;-2.30;53.38;103560.25;5036075;28;20663;-80
2024/01/08 10:31:04;;;;;;;4.67;3.90;;;;;;;-2.25;53.35;103569.19;5035586;28;20233;-80
2024/01/08 10:33:31;;;;;;;4.10;3.70;;;;;;;-2.26;53.62;103569.97;5035771;28;20281;-82
2024/01/08 10:35:58;;;;;;;4.43;4.03;;;;;;;-2.15;53.42;103570.84;5036146;28;20210;-82
2024/01/08 10:38:24;;;;;;;4.30;4.00;;;;;;;-2.13;52.96;103571.88;5035651;28;20438;-82
2024/01/08 10:40:55;;;;;;;5.23;4.73;;;;;;;-2.20;53.56;103580.72;5027014;28;20198;-82
2024/01/08 10:43:21;;;;;;;4.37;3.97;;;;;;;-2.19;53.43;103584.16;5035335;28;20205;-81
2024/01/08 10:45:49;;;;;;;4.03;3.60;;;;;;;-2.27;52.25;103591.19;5035297;28;20267;-80
2024/01/08 10:48:21;;;;;;;5.03;4.30;;;;;;;-2.32;52.70;103605.28;5034963;28;20227;-81
2024/01/08 10:50:54;;;;;;;4.00;3.50;;;;;;;-2.28;52.51;103608.97;5030587;28;20264;-82
2024/01/08 10:53:29;;;;;;;4.80;3.70;;;;;;;-2.26;52.60;103616.03;5035054;28;20256;-81
2024/01/08 10:55:57;;;;;;;3.87;3.57;;;;;;;-2.26;53.02;103608.34;5035254;28;20206;-82
2024/01/08 10:58:29;;;;;;;4.43;4.03;;;;;;;-2.30;53.62;103613.06;5034906;28;20622;-81
2024/01/08 11:00:56;;;;;;;4.53;4.10;;;;;;;-2.24;52.99;103598.22;5029810;28;20684;-83
2024/01/08 11:03:23;;;;;;;5.57;4.00;;;;;;;-2.21;52.70;103609.63;5034305;28;20272;-82
2024/01/08 11:05:51;;;;;;;4.70;4.17;;;;;;;-2.22;53.02;103610.41;5035005;28;20206;-82
2024/01/08 11:08:19;;;;;;;3.90;3.57;;;;;;;-2.19;52.91;103614.88;5033871;28;20257;-82
2024/01/08 11:10:46;;;;;;;4.43;4.03;;;;;;;-2.18;53.11;103614.13;5035188;28;20238;-83
2024/01/08 11:13:16;;;;;;;4.83;4.23;;;;;;;-2.10;53.32;103605.41;5034224;28;20279;-82
2024/01/08 11:15:45;;;;;;;9.27;3.87;;;;;;;-2.07;53.26;103599.66;5034609;28;20210;-82
2024/01/08 11:18:24;;;;;;;5.03;4.10;;;;;;;-2.04;53.56;103607.59;5033155;28;20236;-82
2024/01/08 11:20:51;;;;;;;4.70;3.80;;;;;;;-1.98;52.91;103600.44;5028839;28;20206;-80
2024/01/08 11:23:36;;;;;;;5.00;4.50;;;;;;;-1.98;52.82;103603.00;5034833;28;20584;-82
2024/01/08 11:26:04;;;;;;;4.37;3.97;;;;;;;-2.07;52.25;103615.91;5034297;28;20202;-81